Darksville, Missouri
Current Conditions -  °F | °C
As of 7:55 AM on Monday 20 Oct 2014 (Local Time) from KVER Reporting Station
Clear Clear  
Wind Chill: 53°   Ceiling: Unl
Heat Index: 53°   Visibility: 10mi
Dew Point: 53°   Wind: 3mph
Humidity: 97%   Direction: 240°WSW
Pressure: 30"   Gusts: NA
Location:  39.4578°N, 92.5864°W
Report Text: KVER 201255Z AUTO 24003KT 10SM CLR 12/11 A3000 RMK AO2 T01180114
Loading
Personal Weather Stations






























Interactive Weather Map
Tropical Storm Tracking
New forecast layout! Learn more

10-Day Weather Forecast

Advertisements
Track Severe Weather on mobile